Time;durP1;ratioP1;P1;durP2;ratioP2;P2;SDS_P1;SDS_P2;PMS_P1;PMS_P2;Temp;Humidity;BMP_temperature;BMP_pressure;BME280_temperature;BME280_humidity;BME280_pressure;Samples;Min_cycle;Max_cycle;Signal;HPM_P1;HPM_P2
2024/01/05 00:00:00;;;;;;;20.40;3.20;;;;;;;-22.28;52.16;99293.50;6275917;22;20007;-52
2024/01/05 00:02:26;;;;;;;8.48;2.50;;;;;;;-22.32;52.56;99295.81;6276606;22;20014;-53
2024/01/05 00:04:52;;;;;;;12.18;4.03;;;;;;;-22.46;52.90;99293.59;6276559;22;20012;-55
2024/01/05 00:07:17;;;;;;;4.60;1.88;;;;;;;-22.39;53.10;99287.06;6276068;22;20075;-53
2024/01/05 00:09:43;;;;;;;9.27;3.17;;;;;;;-22.46;53.16;99285.97;6275698;22;20308;-55
2024/01/05 00:12:08;;;;;;;15.13;3.80;;;;;;;-22.44;53.26;99284.34;6276448;22;20003;-51
2024/01/05 00:14:37;;;;;;;14.93;3.30;;;;;;;-22.45;53.72;99279.22;6276405;22;20054;-56
2024/01/05 00:17:03;;;;;;;8.60;1.85;;;;;;;-22.21;53.32;99292.03;6275666;22;20057;-57
2024/01/05 00:19:28;;;;;;;14.75;4.25;;;;;;;-22.27;53.04;99286.72;6275743;22;20000;-56
2024/01/05 00:21:54;;;;;;;12.50;3.58;;;;;;;-22.39;53.05;99287.97;6275125;22;20015;-50
2024/01/05 00:24:19;;;;;;;8.77;2.97;;;;;;;-22.33;53.28;99264.47;6276620;22;19996;-49
2024/01/05 00:26:45;;;;;;;12.18;4.22;;;;;;;-22.36;53.58;99287.19;6276114;22;20018;-53
2024/01/05 00:29:10;;;;;;;15.77;5.20;;;;;;;-22.39;53.58;99287.97;6275839;22;20019;-50
2024/01/05 00:31:36;;;;;;;7.45;2.65;;;;;;;-22.33;53.87;99279.72;6276165;22;20007;-55
2024/01/05 00:34:01;;;;;;;6.32;1.42;;;;;;;-22.05;53.52;99282.53;6276107;22;20400;-50
2024/01/05 00:36:27;;;;;;;13.10;4.15;;;;;;;-22.12;52.64;99282.28;6276587;22;20082;-53
2024/01/05 00:38:52;;;;;;;16.00;3.85;;;;;;;-22.39;52.76;99262.59;6277543;22;20011;-52
2024/01/05 00:41:18;;;;;;;14.48;3.63;;;;;;;-22.27;53.06;99281.66;6278204;22;20016;-54
2024/01/05 00:43:43;;;;;;;15.20;4.70;;;;;;;-22.36;53.12;99276.19;6276772;22;20016;-51
2024/01/05 00:46:09;;;;;;;16.67;5.22;;;;;;;-22.53;53.30;99263.69;6277226;22;20055;-50
2024/01/05 00:48:35;;;;;;;16.55;3.85;;;;;;;-22.29;53.58;99279.06;6277350;22;20010;-52
2024/01/05 00:51:00;;;;;;;17.70;4.88;;;;;;;-23.36;53.40;99104.75;6277400;22;20004;-50
2024/01/05 00:53:26;;;;;;;15.73;3.85;;;;;;;-22.22;53.66;99282.69;6277596;22;20339;-53
2024/01/05 00:55:51;;;;;;;4.38;1.52;;;;;;;-21.94;53.60;99286.38;6277992;22;20376;-53
2024/01/05 00:58:17;;;;;;;9.65;3.58;;;;;;;-21.93;52.81;99272.00;6277522;22;20012;-55
2024/01/05 01:00:42;;;;;;;10.50;3.40;;;;;;;-21.88;52.45;99273.94;6276723;22;20000;-51
2024/01/05 01:03:08;;;;;;;16.13;2.83;;;;;;;-21.79;52.54;99288.69;6276356;22;20007;-50
2024/01/05 01:05:33;;;;;;;18.27;4.05;;;;;;;-21.83;52.00;99285.16;6276382;22;20363;-56
2024/01/05 01:08:00;;;;;;;17.80;2.60;;;;;;;-22.11;52.58;99289.09;6277801;22;20034;-55
2024/01/05 01:10:25;;;;;;;6.55;2.10;;;;;;;-21.82;52.20;99280.91;6277213;22;20076;-52
2024/01/05 01:12:51;;;;;;;4.65;1.52;;;;;;;-21.74;51.83;99278.69;6277655;22;20400;-52
2024/01/05 01:15:17;;;;;;;5.75;1.40;;;;;;;-21.85;51.99;99284.22;6278243;22;20011;-51
2024/01/05 01:17:42;;;;;;;14.50;4.95;;;;;;;-22.22;51.90;99239.53;6277091;22;20079;-54
2024/01/05 01:20:08;;;;;;;5.78;2.33;;;;;;;-22.20;52.47;99276.00;6277297;22;20282;-55
2024/01/05 01:22:34;;;;;;;9.05;3.28;;;;;;;-21.96;52.81;99276.16;6277661;22;20000;-52
2024/01/05 01:25:00;;;;;;;7.30;2.35;;;;;;;-21.84;52.26;99278.31;6276190;22;20018;-54
2024/01/05 01:27:25;;;;;;;7.63;1.98;;;;;;;-21.62;51.73;99275.72;6276878;22;20004;-54
2024/01/05 01:29:51;;;;;;;5.68;2.15;;;;;;;-21.72;51.77;99279.59;6277698;22;20015;-54
2024/01/05 01:32:16;;;;;;;4.55;1.63;;;;;;;-21.62;51.84;99299.47;6277677;22;20335;-54
2024/01/05 01:34:42;;;;;;;6.70;2.25;;;;;;;-21.77;52.17;99291.25;6277165;22;20000;-55
2024/01/05 01:37:07;;;;;;;13.55;4.35;;;;;;;-22.12;52.39;99274.69;6276988;22;20004;-56
2024/01/05 01:39:33;;;;;;;2.40;0.75;;;;;;;-21.89;52.75;99289.97;6277092;22;20091;-56
2024/01/05 01:42:00;;;;;;;5.88;2.65;;;;;;;-21.71;52.40;99283.88;6277068;22;20011;-54
2024/01/05 01:44:25;;;;;;;8.23;3.78;;;;;;;-21.60;51.90;99284.28;6274933;22;20069;-52
2024/01/05 01:46:55;;;;;;;9.40;3.05;;;;;;;-21.83;52.12;99279.19;6277004;22;20008;-56
2024/01/05 01:49:22;;;;;;;4.43;2.00;;;;;;;-21.60;52.09;99276.66;6277800;22;20038;-58
2024/01/05 01:51:48;;;;;;;5.72;2.13;;;;;;;-21.63;52.01;99272.34;6276870;22;20003;-52
2024/01/05 01:54:14;;;;;;;18.80;4.47;;;;;;;-21.71;52.18;99273.72;6276534;22;20003;-55
2024/01/05 01:56:43;;;;;;;5.10;1.80;;;;;;;-21.62;52.37;99284.22;6275697;22;20343;-54
2024/01/05 01:59:09;;;;;;;3.80;2.03;;;;;;;-21.42;52.03;99281.59;6277467;22;20397;-55
2024/01/05 02:01:35;;;;;;;5.75;2.42;;;;;;;-21.48;51.91;99288.97;6276836;22;20078;-53
2024/01/05 02:04:01;;;;;;;7.38;3.20;;;;;;;-21.40;52.12;99293.53;6276308;22;20443;-55
2024/01/05 02:06:26;;;;;;;3.97;1.55;;;;;;;-21.36;51.90;99286.91;6276744;22;19999;-52
2024/01/05 02:08:52;;;;;;;8.05;2.60;;;;;;;-21.54;52.01;99289.63;6276174;22;20007;-57
2024/01/05 02:11:18;;;;;;;5.43;2.58;;;;;;;-21.75;52.61;99288.00;6277071;22;20000;-56
2024/01/05 02:13:44;;;;;;;11.80;3.50;;;;;;;-21.63;52.66;99295.19;6276492;22;20006;-58
2024/01/05 02:16:10;;;;;;;11.63;2.70;;;;;;;-21.68;52.80;99289.97;6276768;22;20015;-52
2024/01/05 02:18:55;;;;;;;9.98;2.35;;;;;;;-21.34;52.47;99281.88;6276762;22;20304;-56
2024/01/05 02:21:28;;;;;;;3.22;1.52;;;;;;;-21.47;52.39;99290.69;6276791;22;20071;-52
2024/01/05 02:23:54;;;;;;;4.97;1.88;;;;;;;-21.52;52.23;99270.22;6276764;22;20027;-53
2024/01/05 02:26:19;;;;;;;12.45;4.35;;;;;;;-21.72;52.72;99282.16;6276929;22;20385;-56
2024/01/05 02:28:45;;;;;;;10.13;2.95;;;;;;;-21.62;53.31;99276.59;6277078;22;20000;-58
2024/01/05 02:31:10;;;;;;;9.50;3.70;;;;;;;-21.57;52.92;99286.97;6276877;22;20038;-53
2024/01/05 02:33:36;;;;;;;12.63;4.97;;;;;;;-22.10;53.20;99204.50;6276444;22;20004;-54
2024/01/05 02:36:02;;;;;;;4.38;2.05;;;;;;;-21.53;53.08;99264.25;6276782;22;20011;-56
2024/01/05 02:38:28;;;;;;;4.65;2.13;;;;;;;-21.42;53.05;99286.69;6276844;22;20074;-53
2024/01/05 02:40:55;;;;;;;7.97;2.35;;;;;;;-21.40;52.96;99275.75;6276486;22;20140;-58
2024/01/05 02:43:24;;;;;;;17.08;4.30;;;;;;;-21.55;53.19;99276.03;6276269;22;20022;-56
2024/01/05 02:45:49;;;;;;;15.88;4.43;;;;;;;-21.58;53.48;99270.84;6275031;22;20428;-53
2024/01/05 02:48:15;;;;;;;4.20;2.15;;;;;;;-21.29;52.98;99268.53;6276184;22;20061;-52
2024/01/05 02:50:40;;;;;;;3.35;2.03;;;;;;;-21.34;52.97;99277.66;6276399;22;20071;-57
2024/01/05 02:53:06;;;;;;;5.05;2.65;;;;;;;-21.12;52.81;99273.41;6276628;22;20049;-50
2024/01/05 02:55:31;;;;;;;3.78;1.55;;;;;;;-21.11;52.50;99282.75;6276247;22;19995;-55
2024/01/05 02:57:57;;;;;;;12.40;3.88;;;;;;;-21.33;52.61;99279.41;6276455;22;20065;-51
2024/01/05 03:00:22;;;;;;;13.57;4.15;;;;;;;-21.41;52.97;99268.09;6275875;22;20018;-56
2024/01/05 03:02:48;;;;;;;3.05;1.60;;;;;;;-21.09;52.21;99279.47;6275107;22;20013;-51
2024/01/05 03:05:13;;;;;;;12.68;4.55;;;;;;;-21.37;52.73;99280.94;6276366;22;20003;-56
2024/01/05 03:07:40;;;;;;;11.68;3.45;;;;;;;-21.30;52.71;99286.28;6275931;22;20000;-53
2024/01/05 03:10:07;;;;;;;11.52;3.15;;;;;;;-21.24;52.82;99299.22;6276648;22;20003;-54
2024/01/05 03:12:32;;;;;;;8.82;2.40;;;;;;;-21.30;52.86;99296.47;6276214;22;20446;-50
2024/01/05 03:14:58;;;;;;;2.78;1.10;;;;;;;-21.12;52.44;99288.66;6276622;22;20004;-53
2024/01/05 03:17:24;;;;;;;8.73;2.92;;;;;;;-21.39;52.25;99241.03;6276554;22;20000;-55
2024/01/05 03:19:49;;;;;;;7.45;3.15;;;;;;;-21.20;52.49;99290.91;6276388;22;20042;-57
2024/01/05 03:22:15;;;;;;;18.20;3.85;;;;;;;-21.52;52.94;99281.22;6275580;22;20008;-56
2024/01/05 03:24:42;;;;;;;4.57;1.55;;;;;;;-21.21;52.96;99296.78;6276165;22;20099;-55
2024/01/05 03:27:12;;;;;;;16.08;4.80;;;;;;;-21.34;53.19;99295.47;6276882;22;20404;-57
2024/01/05 03:29:39;;;;;;;2.42;1.55;;;;;;;-21.45;53.11;99256.06;6275949;22;20007;-50
2024/01/05 03:32:05;;;;;;;10.93;2.63;;;;;;;-21.52;52.77;99225.31;6276172;22;20079;-59
2024/01/05 03:34:30;;;;;;;11.00;2.72;;;;;;;-21.10;52.72;99287.03;6276537;22;20000;-56
2024/01/05 03:36:56;;;;;;;7.50;2.45;;;;;;;-21.59;52.95;99233.53;6276668;22;20003;-55
2024/01/05 03:39:22;;;;;;;6.15;2.80;;;;;;;-21.24;53.12;99289.91;6275929;22;20007;-57
2024/01/05 03:41:47;;;;;;;11.60;3.28;;;;;;;-21.08;52.88;99303.22;6275863;22;20012;-54
2024/01/05 03:44:20;;;;;;;10.70;2.47;;;;;;;-21.38;53.00;99293.63;6276435;22;20015;-51
2024/01/05 03:46:49;;;;;;;10.10;4.00;;;;;;;-21.38;53.45;99306.31;6274716;22;20007;-55
2024/01/05 03:49:15;;;;;;;6.95;2.75;;;;;;;-21.44;53.51;99295.94;6274498;22;20358;-55
2024/01/05 03:51:42;;;;;;;4.43;2.75;;;;;;;-21.08;53.03;99315.94;6276271;22;20004;-53
2024/01/05 03:54:07;;;;;;;11.25;3.47;;;;;;;-21.64;53.33;99262.13;6276795;22;20000;-56
2024/01/05 03:56:48;;;;;;;15.10;5.10;;;;;;;-21.34;53.38;99307.28;6276131;22;20097;-56
2024/01/05 03:59:14;;;;;;;18.02;4.22;;;;;;;-21.41;53.83;99313.84;6275930;22;20046;-55
2024/01/05 04:01:46;;;;;;;5.00;2.10;;;;;;;-21.24;53.62;99300.06;6276110;22;20018;-51
2024/01/05 04:04:12;;;;;;;4.63;1.27;;;;;;;-21.39;53.30;99262.22;6276529;22;20372;-54
2024/01/05 04:06:37;;;;;;;13.60;2.90;;;;;;;-21.17;53.48;99295.25;6276068;22;20030;-53
2024/01/05 04:09:04;;;;;;;13.48;3.15;;;;;;;-21.10;52.93;99299.75;6275655;22;20007;-55
2024/01/05 04:11:30;;;;;;;9.18;2.50;;;;;;;-21.06;52.90;99299.03;6276570;22;20293;-50
2024/01/05 04:13:59;;;;;;;12.00;4.00;;;;;;;-21.21;52.55;99301.03;6276929;22;20079;-56
2024/01/05 04:16:24;;;;;;;14.90;3.92;;;;;;;-21.39;53.26;99308.00;6277832;22;20011;-54
2024/01/05 04:18:50;;;;;;;12.57;3.78;;;;;;;-21.49;53.40;99303.38;6277602;22;20519;-58
2024/01/05 04:21:15;;;;;;;12.98;5.15;;;;;;;-21.60;53.85;99302.94;6277792;22;20042;-54
2024/01/05 04:23:41;;;;;;;7.55;2.75;;;;;;;-21.03;53.28;99306.78;6278318;22;20039;-55
2024/01/05 04:26:07;;;;;;;14.57;5.18;;;;;;;-21.26;52.76;99305.94;6278055;22;19999;-50
2024/01/05 04:28:32;;;;;;;7.53;3.13;;;;;;;-20.97;52.86;99311.25;6277769;22;20004;-55
2024/01/05 04:30:58;;;;;;;17.65;3.25;;;;;;;-21.16;53.05;99315.63;6277641;22;20029;-56
2024/01/05 04:33:24;;;;;;;14.43;4.25;;;;;;;-21.89;53.32;99249.34;6277904;22;20011;-54
2024/01/05 04:35:49;;;;;;;17.27;6.60;;;;;;;-21.26;53.36;99314.41;6277544;22;20091;-53
2024/01/05 04:38:15;;;;;;;6.97;2.92;;;;;;;-21.27;53.13;99322.84;6277374;22;20023;-57
2024/01/05 04:40:40;;;;;;;4.57;2.47;;;;;;;-21.31;53.46;99328.63;6276841;22;20016;-53
2024/01/05 04:43:06;;;;;;;11.10;3.80;;;;;;;-21.06;52.94;99321.94;6277337;22;20004;-52
2024/01/05 04:45:31;;;;;;;6.50;2.53;;;;;;;-21.16;53.19;99309.69;6278001;22;20000;-56
2024/01/05 04:47:57;;;;;;;10.18;3.50;;;;;;;-21.19;52.92;99320.59;6276968;22;20083;-56
2024/01/05 04:50:23;;;;;;;10.30;2.45;;;;;;;-21.09;53.17;99319.28;6277541;22;20003;-56
2024/01/05 04:52:48;;;;;;;7.45;2.65;;;;;;;-21.15;53.43;99321.59;6277663;22;20034;-52
2024/01/05 04:55:15;;;;;;;9.43;2.58;;;;;;;-21.12;53.53;99329.34;6277547;22;20090;-54
2024/01/05 04:57:41;;;;;;;20.20;5.97;;;;;;;-21.19;53.55;99319.75;6277466;22;19999;-53
2024/01/05 05:00:08;;;;;;;8.88;3.47;;;;;;;-21.18;53.84;99316.41;6277817;22;20301;-55
2024/01/05 05:02:34;;;;;;;6.10;3.17;;;;;;;-20.89;53.36;99334.44;6276131;22;20011;-53
2024/01/05 05:05:00;;;;;;;13.20;5.05;;;;;;;-21.03;53.21;99331.38;6276524;22;20304;-56
2024/01/05 05:07:25;;;;;;;9.38;3.35;;;;;;;-20.96;53.43;99334.22;6277619;22;20006;-56
2024/01/05 05:09:51;;;;;;;6.70;1.83;;;;;;;-20.92;53.46;99329.22;6277158;22;20019;-53
2024/01/05 05:12:16;;;;;;;9.35;3.92;;;;;;;-21.48;53.62;99266.09;6277237;22;20093;-54
2024/01/05 05:14:42;;;;;;;16.23;4.80;;;;;;;-21.15;54.03;99329.22;6277630;22;20004;-51
2024/01/05 05:17:08;;;;;;;6.57;2.40;;;;;;;-21.53;54.00;99253.22;6277541;22;19996;-55
2024/01/05 05:19:33;;;;;;;2.80;1.33;;;;;;;-21.00;54.21;99328.94;6277592;22;20002;-54
2024/01/05 05:21:59;;;;;;;15.13;4.30;;;;;;;-20.90;54.00;99322.53;6277771;22;20067;-50
2024/01/05 05:24:25;;;;;;;7.47;1.83;;;;;;;-20.82;53.70;99324.53;6277470;22;19999;-51
2024/01/05 05:26:50;;;;;;;16.02;5.57;;;;;;;-21.24;53.63;99269.56;6277014;22;20011;-54
2024/01/05 05:29:16;;;;;;;14.85;4.50;;;;;;;-20.91;54.00;99319.09;6276300;22;20080;-55
2024/01/05 05:31:41;;;;;;;19.58;6.10;;;;;;;-20.96;53.59;99326.56;6277677;22;20423;-55
2024/01/05 05:34:07;;;;;;;15.70;4.60;;;;;;;-21.02;53.82;99316.16;6277210;22;20000;-53
2024/01/05 05:36:32;;;;;;;12.23;3.97;;;;;;;-20.91;53.98;99316.56;6277185;22;20000;-55
2024/01/05 05:38:59;;;;;;;4.35;2.38;;;;;;;-20.84;54.12;99325.28;6277557;22;20016;-52
2024/01/05 05:41:24;;;;;;;9.77;3.22;;;;;;;-20.75;53.52;99333.22;6277371;22;20011;-58
2024/01/05 05:43:50;;;;;;;15.43;5.70;;;;;;;-21.06;53.79;99311.75;6277064;22;20069;-56
2024/01/05 05:46:16;;;;;;;6.63;2.50;;;;;;;-21.14;54.22;99315.72;6276825;22;20353;-48
2024/01/05 05:48:42;;;;;;;8.40;2.17;;;;;;;-20.86;54.09;99326.91;6277604;22;20092;-50
2024/01/05 05:51:07;;;;;;;10.43;3.95;;;;;;;-20.83;53.94;99324.47;6277804;22;20007;-50
2024/01/05 05:53:34;;;;;;;13.45;5.32;;;;;;;-20.73;53.46;99305.28;6277146;22;20296;-50
2024/01/05 05:55:59;;;;;;;15.93;6.45;;;;;;;-20.92;53.74;99326.69;6276910;22;20011;-53
2024/01/05 05:58:26;;;;;;;3.38;1.48;;;;;;;-20.77;53.79;99332.28;6277711;22;20381;-52
2024/01/05 06:00:52;;;;;;;12.73;3.60;;;;;;;-20.74;53.73;99324.78;6277403;22;19996;-52
2024/01/05 06:03:17;;;;;;;7.25;2.30;;;;;;;-20.73;53.69;99324.00;6276795;22;20004;-54
2024/01/05 06:05:43;;;;;;;4.38;1.52;;;;;;;-20.64;53.23;99325.97;6276898;22;19999;-50
2024/01/05 06:08:09;;;;;;;2.70;1.20;;;;;;;-20.62;53.52;99326.91;6277724;22;20030;-49
2024/01/05 06:10:34;;;;;;;7.97;2.83;;;;;;;-20.88;53.64;99326.00;6277991;22;20011;-50
2024/01/05 06:13:00;;;;;;;7.03;2.75;;;;;;;-20.76;54.03;99346.75;6275713;22;20397;-49
2024/01/05 06:15:25;;;;;;;13.57;3.22;;;;;;;-20.74;53.71;99322.22;6276929;22;20305;-50
2024/01/05 06:17:51;;;;;;;2.95;0.60;;;;;;;-20.46;53.48;99330.88;6277047;22;20008;-50
2024/01/05 06:20:17;;;;;;;17.75;3.53;;;;;;;-20.46;53.12;99342.72;6277181;22;19999;-48
2024/01/05 06:22:42;;;;;;;5.03;1.80;;;;;;;-20.53;53.59;99329.78;6276674;22;20000;-55
2024/01/05 06:25:08;;;;;;;6.95;2.65;;;;;;;-20.45;53.42;99349.56;6276818;22;20274;-55
2024/01/05 06:27:33;;;;;;;9.70;3.15;;;;;;;-20.42;53.95;99350.53;6276912;22;20404;-56
2024/01/05 06:29:59;;;;;;;5.03;2.22;;;;;;;-20.26;53.74;99358.72;6276888;22;20007;-53
2024/01/05 06:32:24;;;;;;;9.20;3.30;;;;;;;-20.12;53.41;99347.34;6276451;22;20056;-53
2024/01/05 06:34:50;;;;;;;8.75;3.55;;;;;;;-20.05;52.88;99347.53;6275813;22;20133;-52
2024/01/05 06:37:15;;;;;;;11.05;2.88;;;;;;;-19.94;52.88;99351.34;6276083;22;20011;-54
2024/01/05 06:39:41;;;;;;;10.25;3.78;;;;;;;-19.85;52.86;99355.84;6276039;22;20026;-57
2024/01/05 06:42:07;;;;;;;7.20;2.50;;;;;;;-19.53;52.28;99359.47;6276537;22;20017;-56
2024/01/05 06:44:32;;;;;;;12.55;4.20;;;;;;;-19.51;52.28;99369.69;6275551;22;19996;-52
2024/01/05 06:46:58;;;;;;;13.23;4.05;;;;;;;-19.43;52.32;99354.66;6276262;22;20003;-55
2024/01/05 06:49:23;;;;;;;20.05;4.32;;;;;;;-19.08;52.15;99377.84;6275531;22;20008;-56
2024/01/05 06:51:49;;;;;;;12.02;4.20;;;;;;;-18.71;51.95;99381.50;6275334;22;20011;-50
2024/01/05 06:54:15;;;;;;;4.57;1.73;;;;;;;-18.66;51.30;99308.44;6276204;22;20018;-49
2024/01/05 06:56:42;;;;;;;10.93;4.30;;;;;;;-18.11;51.21;99364.44;6276153;22;20045;-53
2024/01/05 06:59:09;;;;;;;6.88;2.72;;;;;;;-17.80;50.89;99352.47;6276424;22;20083;-50
2024/01/05 07:01:34;;;;;;;10.50;4.13;;;;;;;-17.62;49.84;99356.28;6275641;22;20289;-50
2024/01/05 07:04:00;;;;;;;7.72;2.92;;;;;;;-17.37;49.72;99369.69;6276030;22;20011;-51
2024/01/05 07:06:25;;;;;;;12.27;4.60;;;;;;;-17.35;49.52;99368.06;6276352;22;20042;-49
2024/01/05 07:08:58;;;;;;;9.10;3.05;;;;;;;-17.05;49.56;99364.50;6276592;22;20471;-50
2024/01/05 07:11:25;;;;;;;12.15;4.55;;;;;;;-17.30;48.41;99311.84;6276047;22;20061;-51
2024/01/05 07:13:51;;;;;;;12.27;4.72;;;;;;;-17.02;48.38;99354.31;6276031;22;20392;-53
2024/01/05 07:16:18;;;;;;;10.02;3.67;;;;;;;-16.89;48.08;99365.66;6276603;22;20003;-54
2024/01/05 07:18:46;;;;;;;13.77;5.03;;;;;;;-16.80;47.74;99376.09;6276404;22;20003;-54
2024/01/05 07:21:16;;;;;;;10.43;4.78;;;;;;;-16.85;48.29;99380.28;6276348;22;20013;-58
2024/01/05 07:23:44;;;;;;;14.45;4.57;;;;;;;-16.90;47.61;99379.31;6276634;22;20031;-59
2024/01/05 07:26:10;;;;;;;9.57;4.30;;;;;;;-17.07;48.29;99382.38;6277017;22;20008;-56
2024/01/05 07:28:37;;;;;;;11.75;5.00;;;;;;;-17.22;48.50;99372.63;6275952;22;20344;-54
2024/01/05 07:31:04;;;;;;;15.63;5.72;;;;;;;-17.24;49.12;99389.66;6275982;22;20000;-56
2024/01/05 07:33:49;;;;;;;13.15;4.63;;;;;;;-17.10;48.63;99382.31;6275433;22;20018;-56
2024/01/05 07:36:15;;;;;;;9.40;4.28;;;;;;;-17.23;48.45;99380.28;6276458;22;20031;-55
2024/01/05 07:38:41;;;;;;;12.75;4.97;;;;;;;-17.52;48.46;99365.94;6275468;22;20345;-52
2024/01/05 07:41:07;;;;;;;12.63;5.05;;;;;;;-17.51;49.30;99383.03;6275799;22;20012;-54
2024/01/05 07:43:33;;;;;;;15.63;4.85;;;;;;;-17.52;49.32;99382.97;6275464;22;20096;-53
2024/01/05 07:46:02;;;;;;;12.00;5.28;;;;;;;-17.73;49.33;99362.84;6277493;22;20293;-53
2024/01/05 07:48:31;;;;;;;14.68;5.85;;;;;;;-17.64;50.07;99389.53;6277682;22;20372;-53
2024/01/05 07:50:57;;;;;;;12.35;4.68;;;;;;;-17.55;49.59;99377.78;6276724;22;20035;-50
2024/01/05 07:53:23;;;;;;;11.18;4.93;;;;;;;-17.49;49.55;99372.81;6278318;22;20274;-49
2024/01/05 07:55:49;;;;;;;16.63;5.70;;;;;;;-17.38;49.18;99370.53;6278610;22;20064;-50
2024/01/05 07:58:15;;;;;;;11.75;4.90;;;;;;;-17.38;49.33;99375.63;6278295;22;20004;-51
2024/01/05 08:00:40;;;;;;;14.25;5.90;;;;;;;-17.28;48.86;99374.16;6251704;22;20004;-50
2024/01/05 08:03:06;;;;;;;11.98;5.40;;;;;;;-17.14;48.70;99375.38;6278545;22;20003;-52
2024/01/05 08:05:32;;;;;;;18.00;5.70;;;;;;;-17.11;48.96;99366.91;6278351;22;20090;-50
2024/01/05 08:07:57;;;;;;;13.45;5.60;;;;;;;-16.88;48.55;99370.84;6277592;22;20022;-57
2024/01/05 08:10:23;;;;;;;12.45;5.40;;;;;;;-17.19;48.43;99316.38;6277748;22;20011;-55
2024/01/05 08:12:48;;;;;;;19.17;4.70;;;;;;;-17.15;48.77;99306.22;6276989;22;20004;-57
2024/01/05 08:15:14;;;;;;;12.63;4.53;;;;;;;-16.92;48.45;99383.53;6278767;22;20000;-53
2024/01/05 08:18:02;;;;;;;14.55;5.38;;;;;;;-16.99;48.76;99372.31;6277582;22;20113;-53
2024/01/05 08:20:28;;;;;;;17.90;5.50;;;;;;;-17.01;48.97;99366.28;6277699;22;20018;-54
2024/01/05 08:22:53;;;;;;;12.68;5.28;;;;;;;-16.93;48.35;99374.13;6278170;22;20342;-55
2024/01/05 08:25:19;;;;;;;15.05;3.70;;;;;;;-16.94;48.97;99378.34;6278213;22;20004;-52
2024/01/05 08:27:44;;;;;;;14.00;6.05;;;;;;;-17.04;48.68;99381.59;6277881;22;20004;-56
2024/01/05 08:30:11;;;;;;;14.18;5.70;;;;;;;-17.18;49.29;99378.69;6277346;22;20061;-54
2024/01/05 08:32:38;;;;;;;20.25;5.55;;;;;;;-17.10;49.11;99384.84;6275958;22;20014;-54
2024/01/05 08:35:07;;;;;;;17.83;6.10;;;;;;;-17.27;49.07;99343.50;6277555;22;20071;-52
2024/01/05 08:37:34;;;;;;;12.88;5.60;;;;;;;-17.04;49.18;99385.00;6277663;22;19996;-51
2024/01/05 08:40:01;;;;;;;14.60;5.38;;;;;;;-16.91;48.86;99377.56;6276089;22;20054;-53
2024/01/05 08:42:32;;;;;;;14.75;5.07;;;;;;;-16.73;48.93;99372.00;6277797;22;20095;-54
2024/01/05 08:44:58;;;;;;;18.13;6.95;;;;;;;-16.62;49.17;99374.78;6277408;22;20038;-54
2024/01/05 08:47:23;;;;;;;20.05;7.05;;;;;;;-16.66;48.56;99358.47;6277193;22;20400;-57
2024/01/05 08:49:50;;;;;;;17.30;7.28;;;;;;;-16.83;48.72;99316.28;6277641;22;20011;-58
2024/01/05 08:52:15;;;;;;;15.60;5.80;;;;;;;-16.35;48.56;99383.91;6277699;22;20006;-56
2024/01/05 08:54:41;;;;;;;14.88;5.72;;;;;;;-16.31;48.31;99384.00;6276022;22;20000;-53
2024/01/05 08:57:10;;;;;;;20.27;7.72;;;;;;;-16.25;48.46;99378.16;6277515;22;19999;-57
2024/01/05 08:59:37;;;;;;;23.05;8.35;;;;;;;-16.21;47.51;99364.53;6277446;22;20065;-58
2024/01/05 09:02:03;;;;;;;18.20;7.88;;;;;;;-16.07;47.46;99374.19;6277154;22;20405;-50
2024/01/05 09:04:29;;;;;;;18.00;7.22;;;;;;;-16.11;47.87;99377.53;6277994;22;20396;-54
2024/01/05 09:06:54;;;;;;;23.20;8.68;;;;;;;-16.18;47.50;99371.41;6277240;22;20069;-57
2024/01/05 09:09:20;;;;;;;18.58;8.07;;;;;;;-16.17;47.98;99366.34;6277114;22;20083;-55
2024/01/05 09:11:45;;;;;;;17.95;6.75;;;;;;;-16.11;47.67;99373.28;6278080;22;20000;-55
2024/01/05 09:14:11;;;;;;;16.17;6.32;;;;;;;-16.11;47.85;99373.28;6277875;22;20022;-53
2024/01/05 09:16:36;;;;;;;7.93;4.18;;;;;;;-15.97;48.52;99370.09;6277214;22;20056;-54
2024/01/05 09:19:02;;;;;;;11.52;4.80;;;;;;;-15.96;47.70;99371.84;6277276;22;20003;-52
2024/01/05 09:21:28;;;;;;;15.23;5.22;;;;;;;-16.12;48.42;99366.44;6277850;22;20092;-56
2024/01/05 09:23:53;;;;;;;16.33;4.63;;;;;;;-16.10;48.04;99364.75;6277216;22;20003;-54
2024/01/05 09:26:19;;;;;;;10.13;4.30;;;;;;;-16.21;48.65;99366.22;6276218;22;20030;-53
2024/01/05 09:28:44;;;;;;;11.40;4.53;;;;;;;-16.23;48.00;99360.22;6276810;22;19999;-58
2024/01/05 09:31:10;;;;;;;11.27;5.18;;;;;;;-16.26;48.84;99360.16;6277691;22;20011;-53
2024/01/05 09:33:36;;;;;;;18.40;5.88;;;;;;;-16.24;48.76;99355.91;6277120;22;20023;-54
2024/01/05 09:36:02;;;;;;;14.23;5.53;;;;;;;-16.27;48.59;99354.19;6275893;22;20008;-51
2024/01/05 09:38:49;;;;;;;9.20;3.92;;;;;;;-16.19;48.71;99364.56;6276472;22;20008;-54
2024/01/05 09:41:35;;;;;;;18.30;5.65;;;;;;;-16.29;48.27;99362.66;6276657;22;20046;-52
2024/01/05 09:44:21;;;;;;;12.98;5.47;;;;;;;-16.42;48.95;99358.97;6276163;22;20053;-55
2024/01/05 09:47:07;;;;;;;15.82;6.47;;;;;;;-16.51;49.04;99346.84;6275948;22;20008;-53
2024/01/05 09:49:52;;;;;;;12.70;6.22;;;;;;;-16.41;49.16;99345.34;6276474;22;20301;-50
2024/01/05 09:52:38;;;;;;;21.92;8.23;;;;;;;-16.24;48.85;99350.78;6276125;22;20003;-55
2024/01/05 09:55:24;;;;;;;17.20;6.90;;;;;;;-16.28;48.22;99349.00;6275598;22;20004;-59
2024/01/05 09:58:09;;;;;;;15.48;5.93;;;;;;;-16.40;48.52;99360.72;6276220;22;20007;-57
2024/01/05 10:01:03;;;;;;;17.83;6.28;;;;;;;-16.34;48.83;99360.88;6276440;22;20003;-57
2024/01/05 10:07:00;;;;;;;17.27;6.65;;;;;;;-16.35;49.50;99338.63;6275635;22;20314;-54
2024/01/05 10:09:51;;;;;;;19.88;8.07;;;;;;;-16.36;49.12;99348.84;6275769;22;20094;-54
2024/01/05 10:12:37;;;;;;;21.20;8.48;;;;;;;-16.37;49.00;99347.13;6275875;22;20081;-54
2024/01/05 10:15:22;;;;;;;15.43;6.22;;;;;;;-16.33;49.17;99334.41;6275727;22;20010;-51
2024/01/05 10:18:15;;;;;;;20.33;7.38;;;;;;;-16.34;49.11;99339.50;6275886;22;20359;-57
2024/01/05 10:21:10;;;;;;;17.40;6.78;;;;;;;-16.27;49.06;99343.91;6276013;22;20073;-55
2024/01/05 10:23:57;;;;;;;;;;;;;;;-16.01;49.41;99343.56;6275911;22;20014;-55
2024/01/05 10:26:42;;;;;;;14.73;6.28;;;;;;;-16.07;49.30;99345.97;6275826;22;19922;-53
2024/01/05 10:29:28;;;;;;;16.40;6.88;;;;;;;-15.98;48.41;99342.72;6275245;22;20072;-54
2024/01/05 10:32:15;;;;;;;18.83;7.40;;;;;;;-15.95;48.57;99361.63;6275682;22;20008;-56
2024/01/05 10:35:03;;;;;;;18.70;7.10;;;;;;;-15.91;48.45;99352.28;6275428;22;20011;-56
2024/01/05 10:38:03;;;;;;;28.05;8.55;;;;;;;-15.87;48.62;99349.75;6275928;22;20003;-56
2024/01/05 10:40:49;;;;;;;12.43;5.75;;;;;;;-16.15;48.43;99294.59;6274805;22;20015;-55
2024/01/05 10:43:35;;;;;;;19.63;6.22;;;;;;;-15.87;48.64;99351.47;6275586;22;20008;-56
2024/01/05 10:46:22;;;;;;;14.05;6.38;;;;;;;-15.90;48.59;99354.88;6275988;22;19999;-57
2024/01/05 10:49:07;;;;;;;14.85;6.80;;;;;;;-15.91;48.51;99352.28;6275032;22;20021;-58
2024/01/05 10:51:53;;;;;;;17.63;6.43;;;;;;;-15.94;48.93;99347.06;6275981;22;20064;-55
2024/01/05 10:54:39;;;;;;;16.50;6.80;;;;;;;-15.89;48.35;99358.31;6275126;22;20291;-56
2024/01/05 10:57:25;;;;;;;14.02;5.22;;;;;;;-16.07;48.54;99312.66;6274986;22;20007;-53
2024/01/05 11:00:13;;;;;;;18.35;6.13;;;;;;;-15.91;48.91;99363.41;6276030;22;20316;-53
2024/01/05 11:03:08;;;;;;;16.92;6.05;;;;;;;-16.02;48.66;99357.22;6275290;22;20003;-54
2024/01/05 11:05:54;;;;;;;18.05;6.55;;;;;;;-16.17;48.73;99357.75;6275585;22;20015;-56
2024/01/05 11:08:48;;;;;;;15.73;5.35;;;;;;;-16.49;48.98;99314.41;6275811;22;20368;-54
2024/01/05 11:12:05;;;;;;;13.93;5.60;;;;;;;-16.61;49.00;99277.47;6275024;22;20124;-53
2024/01/05 11:15:00;;;;;;;13.95;5.82;;;;;;;-16.19;48.96;99362.88;6275494;22;20039;-51
2024/01/05 11:18:05;;;;;;;12.05;5.30;;;;;;;-16.10;48.79;99362.19;6275792;22;20246;-54
2024/01/05 11:21:08;;;;;;;13.73;5.45;;;;;;;-16.09;49.00;99355.34;6275023;22;20019;-55
2024/01/05 11:23:55;;;;;;;11.23;4.53;;;;;;;-15.94;48.67;99370.16;6275312;22;20404;-55
2024/01/05 11:26:42;;;;;;;15.70;3.85;;;;;;;-15.93;48.41;99370.19;6275652;22;20108;-52
2024/01/05 11:29:47;;;;;;;13.88;6.03;;;;;;;-16.06;48.88;99368.22;6274787;22;20003;-52
2024/01/05 11:32:46;;;;;;;13.38;4.55;;;;;;;-16.11;48.60;99360.47;6274883;22;20305;-54